​ ​

Форум клана ЧПУшников

Информация о пользователе

Привет, Гость! Войдите или зарегистрируйтесь.


Вы здесь » Форум клана ЧПУшников » Лазерные станки


Лазерные станки

Тем 481 страница 560 из 614

Тема Ответов Просмотров Последнее сообщение
1 160 28-04-2016 19:58:34  Kirian
37 1210 28-04-2016 14:14:04  neotex
3 761 27-04-2016 20:39:04  andrey_e
6 300 27-04-2016 16:16:09  denisej
485 Reci s2  Neudrums
35 925 26-04-2016 21:17:31  Элинка
5 511 25-04-2016 16:52:18  MPN
15 1656 23-04-2016 22:53:06  Sokrat
9 579 23-04-2016 17:45:11  Tab
35 1187 23-04-2016 13:05:00  Valera5609
18 1050 21-04-2016 12:07:58  f.laser
1 180 17-04-2016 23:10:04  megagad
492 Резка с углекислотой  Виктор Краски
23 858 17-04-2016 08:59:55  Flint2015
13 1916 15-04-2016 11:34:20  ImageLaser
11 321 11-04-2016 14:35:21  MaxMaster
13 410 09-04-2016 20:30:46  aldushin
5 293 06-04-2016 17:28:09  daguss
497 Закрыта Фото готовых работ выполненных на лазере  Администратор  [ 1 2 3  10 ]
991 98549 29-03-2016 17:50:18  sva-don
498 Закрыта Резко упала мощность  Neudrums
10 391 24-03-2016 00:59:57  Neudrums
5 478 22-03-2016 20:12:39  Дилик
500 Прошу помощи.  Назар
5 349 16-03-2016 09:51:09  Назар
8 256 14-03-2016 16:51:53  Расулыч
7 519 10-03-2016 20:36:59  chirik
5 806 07-03-2016 20:32:32  Flint2015
19 1797 04-03-2016 17:27:39  Airside
4 227 29-02-2016 22:43:44  nikson
5 189 27-02-2016 08:50:26  Flint2015
507 Тестирование размера реза  Виктор Краски
9 493 26-02-2016 16:55:55  daguss
508 кривая резка  Восходник
17 515 26-02-2016 00:06:30  semerochka
80 6632 22-02-2016 20:51:36  Kinetic
17 1049 22-02-2016 12:02:26  Kinetic
5 691 14-02-2016 15:24:59  gabber
7 577 14-02-2016 12:43:54  Zippo
12 400 12-02-2016 17:15:38  Yaroslavl
2 222 12-02-2016 10:23:44  Администратор
22 922 07-02-2016 15:27:40  Imobile
6 344 28-01-2016 17:09:21  StarPOM
25 1150 26-01-2016 15:23:58  Zippo
3 263 07-01-2016 00:45:42  okruk
4 256 05-01-2016 10:25:43  markaru
520 Нужна помощь специалистов!  Мастер на все руки
30 1477 02-01-2016 20:05:38  racon75
7 228 24-12-2015 12:08:34  lexus80
22 3337 21-12-2015 14:22:31  Kuz
14 416 14-12-2015 15:59:50  YuSTas
8 349 12-12-2015 20:20:10  Shamankiller
15 710 12-12-2015 18:02:39  racon75
38 1039 08-12-2015 23:46:50  asor
35 937 08-12-2015 18:35:57  dm6
8 375 07-12-2015 21:25:28  Dimon
25 931 04-12-2015 21:36:10  Silmaril
530 Лазерный станок Kamach II 1280 AS  радион рашитович
4 248 04-12-2015 20:36:20  Airside
4 313 04-12-2015 10:56:16  Drakonstar
9 686 29-11-2015 02:45:00  Лазорез
38 854 27-11-2015 18:12:36  ЫХ-000
41 1584 27-11-2015 12:34:06  Slym
44 1951 22-11-2015 11:50:31  _king_
536 mpc6525 - завис  Dr_dober
2 278 16-11-2015 12:54:39  Dr_dober
30 2307 09-11-2015 16:17:15  bort747
1 219 07-11-2015 14:48:03  MobileMan
539 Гравивовка на iPhone  Максим1975
9 623 28-10-2015 12:02:57  Восходник
44 1580 25-10-2015 16:54:39  tok17
3 248 25-10-2015 11:20:20  Фёдор Соколов
12 669 24-10-2015 11:53:29  yri71
21 2118 21-10-2015 23:59:06  dmitrymi
10 916 20-10-2015 16:04:37  YuSTas
2 125 20-10-2015 15:35:36  Kuz
6 258 15-10-2015 09:36:29  Валерия-206
3 208 13-10-2015 11:20:10  Kuz
1 165 06-10-2015 16:34:03  coolmail
29 1228 30-09-2015 12:07:02  olejah
9 429 28-09-2015 04:25:16  BlackOx
551 Расфокусировка  Прокоп
8 331 24-09-2015 20:30:02  Прокоп
14 403 24-09-2015 20:07:38  Lord
6 273 23-09-2015 08:43:57  Airside
3 142 22-09-2015 17:06:12  PalSecam
3 185 22-09-2015 14:56:27  PalSecam
2 182 16-09-2015 22:31:09  Артем-70
35 582 04-09-2015 12:04:29  ecto
5 275 02-09-2015 16:35:06  Halkin
2 411 01-09-2015 22:56:15  Soundlab 77
560 Станок для резки  владимир1070
7 324 27-08-2015 01:47:38  tok17

Вы здесь » Форум клана ЧПУшников » Лазерные станки